Time;durP1;ratioP1;P1;durP2;ratioP2;P2;SDS_P1;SDS_P2;PMS_P1;PMS_P2;Temp;Humidity;BMP_temperature;BMP_pressure;BME280_temperature;BME280_humidity;BME280_pressure;Samples;Min_cycle;Max_cycle;Signal;HPM_P1;HPM_P2
2023/03/29 00:01:11;;;;;;;3.08;0.77;;;;;;;;;;5264440;28;20423;-69
2023/03/29 00:03:46;;;;;;;3.03;0.85;;;;;;;;;;5264195;28;20032;-69
2023/03/29 00:06:21;;;;;;;3.05;0.93;;;;;;;;;;5263618;28;20013;-69
2023/03/29 00:08:55;;;;;;;1.55;0.60;;;;;;;;;;5263630;28;20473;-69
2023/03/29 00:11:26;;;;;;;2.97;1.23;;;;;;;;;;5264626;28;20062;-69
2023/03/29 00:13:57;;;;;;;1.77;0.60;;;;;;;;;;5263477;28;20021;-69
2023/03/29 00:16:29;;;;;;;2.88;0.70;;;;;;;;;;5264426;28;20091;-69
2023/03/29 00:19:00;;;;;;;1.85;0.60;;;;;;;;;;5264102;28;20468;-69
2023/03/29 00:21:31;;;;;;;2.05;0.70;;;;;;;;;;5263292;28;20029;-70
2023/03/29 00:24:02;;;;;;;1.67;0.68;;;;;;;;;;5264281;28;20025;-69
2023/03/29 00:26:33;;;;;;;2.42;0.60;;;;;;;;;;5263785;28;20028;-69
2023/03/29 00:29:05;;;;;;;3.63;0.70;;;;;;;;;;5262897;28;20037;-69
2023/03/29 00:31:36;;;;;;;2.83;0.65;;;;;;;;;;5263696;28;20028;-69
2023/03/29 00:34:07;;;;;;;1.73;0.50;;;;;;;;;;5263221;28;20052;-69
2023/03/29 00:36:39;;;;;;;2.08;0.60;;;;;;;;;;5263665;28;20017;-70
2023/03/29 00:39:10;;;;;;;2.47;0.60;;;;;;;;;;5264007;28;20013;-69
2023/03/29 00:41:42;;;;;;;3.15;0.63;;;;;;;;;;5262733;28;20067;-69
2023/03/29 00:44:32;;;;;;;3.83;0.70;;;;;;;;;;5263806;28;20048;-69
2023/03/29 00:47:03;;;;;;;2.05;0.50;;;;;;;;;;5263551;28;20021;-69
2023/03/29 00:49:34;;;;;;;1.90;0.60;;;;;;;;;;5262836;28;20032;-69
2023/03/29 00:52:06;;;;;;;1.77;0.50;;;;;;;;;;5263097;28;20140;-69
2023/03/29 00:54:38;;;;;;;2.00;0.70;;;;;;;;;;5263287;28;20108;-69
2023/03/29 00:57:11;;;;;;;2.92;0.50;;;;;;;;;;5262694;28;20024;-69
2023/03/29 00:59:43;;;;;;;2.88;0.50;;;;;;;;;;5263217;28;20075;-69
2023/03/29 01:02:16;;;;;;;2.70;0.60;;;;;;;;;;5262677;28;20472;-68
2023/03/29 01:04:47;;;;;;;2.42;0.60;;;;;;;;;;5262673;28;20017;-68
2023/03/29 01:07:22;;;;;;;2.53;1.05;;;;;;;;;;5263096;28;20475;-68
2023/03/29 01:10:14;;;;;;;1.65;0.70;;;;;;;;;;5261974;28;20483;-69
2023/03/29 01:12:50;;;;;;;3.03;1.05;;;;;;;;;;5262602;28;20111;-69
2023/03/29 01:15:24;;;;;;;1.92;0.60;;;;;;;;;;5263007;28;20021;-69
2023/03/29 01:17:56;;;;;;;2.55;0.63;;;;;;;;;;5261977;28;20013;-69
2023/03/29 01:20:42;;;;;;;3.13;0.60;;;;;;;;;;5262842;28;20035;-69
2023/03/29 01:23:31;;;;;;;3.22;0.60;;;;;;;;;;5262416;28;20075;-69
2023/03/29 01:26:05;;;;;;;3.38;0.60;;;;;;;;;;5262918;28;20017;-69
2023/03/29 01:28:39;;;;;;;5.10;1.38;;;;;;;;;;5262868;28;20471;-69
2023/03/29 01:31:14;;;;;;;3.30;0.60;;;;;;;;;;5262198;28;20371;-69
2023/03/29 01:33:50;;;;;;;1.13;0.60;;;;;;;;;;5262294;28;20095;-69
2023/03/29 01:36:27;;;;;;;1.60;0.50;;;;;;;;;;5262637;28;20021;-69
2023/03/29 01:39:03;;;;;;;2.63;0.63;;;;;;;;;;5261223;28;20029;-69
2023/03/29 01:41:47;;;;;;;3.60;0.63;;;;;;;;;;5262357;28;20017;-68
2023/03/29 01:44:36;;;;;;;3.05;0.98;;;;;;;;;;5261842;28;20023;-69
2023/03/29 01:47:11;;;;;;;1.65;0.55;;;;;;;;;;5262792;28;20390;-69
2023/03/29 01:49:56;;;;;;;4.72;0.93;;;;;;;;;;5261758;28;20017;-69
2023/03/29 01:52:36;;;;;;;3.00;0.70;;;;;;;;;;5261456;28;20056;-69
2023/03/29 01:55:12;;;;;;;1.25;0.50;;;;;;;;;;5262087;28;20110;-69
2023/03/29 01:57:44;;;;;;;4.93;0.70;;;;;;;;;;5261947;28;20052;-69
2023/03/29 02:00:18;;;;;;;3.38;0.60;;;;;;;;;;5261816;28;20025;-69
2023/03/29 02:02:50;;;;;;;2.58;0.50;;;;;;;;;;5261695;28;20064;-68
2023/03/29 02:05:21;;;;;;;3.00;0.93;;;;;;;;;;5261462;28;20462;-69
2023/03/29 02:07:54;;;;;;;1.58;0.50;;;;;;;;;;5261802;28;20119;-69
2023/03/29 02:10:25;;;;;;;2.55;0.68;;;;;;;;;;5262329;28;20479;-69
2023/03/29 02:12:57;;;;;;;4.10;0.70;;;;;;;;;;5260653;28;20534;-69
2023/03/29 02:15:28;;;;;;;2.40;0.60;;;;;;;;;;5262045;28;20096;-69
2023/03/29 02:18:00;;;;;;;2.83;0.50;;;;;;;;;;5261380;28;20479;-69
2023/03/29 02:20:35;;;;;;;1.50;0.50;;;;;;;;;;5260890;28;20032;-69
2023/03/29 02:23:13;;;;;;;3.17;0.85;;;;;;;;;;5261503;28;20040;-69
2023/03/29 02:25:44;;;;;;;4.47;0.68;;;;;;;;;;5261387;28;20031;-69
2023/03/29 02:28:16;;;;;;;2.55;0.70;;;;;;;;;;5261003;28;20041;-69
2023/03/29 02:30:47;;;;;;;2.28;0.47;;;;;;;;;;5261274;28;20467;-69
2023/03/29 02:33:22;;;;;;;3.00;0.57;;;;;;;;;;5261579;28;20021;-69
2023/03/29 02:35:57;;;;;;;1.75;0.50;;;;;;;;;;5260188;28;20343;-70
2023/03/29 02:38:30;;;;;;;2.00;0.60;;;;;;;;;;5261387;28;20103;-69
2023/03/29 02:41:01;;;;;;;2.08;0.50;;;;;;;;;;5260490;28;20101;-69
2023/03/29 02:43:33;;;;;;;1.75;0.50;;;;;;;;;;5261367;28;20535;-69
2023/03/29 02:46:06;;;;;;;3.15;0.65;;;;;;;;;;5261234;28;20096;-68
2023/03/29 02:48:37;;;;;;;3.10;0.55;;;;;;;;;;5260482;28;20387;-69
2023/03/29 02:51:30;;;;;;;1.80;0.50;;;;;;;;;;5261228;28;20025;-70
2023/03/29 02:54:07;;;;;;;1.83;0.40;;;;;;;;;;5261511;28;20032;-70
2023/03/29 02:56:42;;;;;;;2.75;0.50;;;;;;;;;;5260429;28;20477;-69
2023/03/29 02:59:14;;;;;;;2.08;0.40;;;;;;;;;;5261473;28;20025;-69
2023/03/29 03:01:45;;;;;;;1.52;0.47;;;;;;;;;;5259866;28;20497;-70
2023/03/29 03:04:17;;;;;;;2.28;0.50;;;;;;;;;;5261216;28;20104;-69
2023/03/29 03:06:48;;;;;;;1.63;0.40;;;;;;;;;;5260757;28;20025;-69
2023/03/29 03:09:19;;;;;;;2.67;0.40;;;;;;;;;;5260473;28;20074;-69
2023/03/29 03:11:50;;;;;;;1.65;0.47;;;;;;;;;;5260242;28;20164;-69
2023/03/29 03:14:22;;;;;;;3.35;0.50;;;;;;;;;;5266229;28;20376;-69
2023/03/29 03:16:54;;;;;;;2.08;0.40;;;;;;;;;;5266608;28;20053;-69
2023/03/29 03:19:25;;;;;;;2.08;0.50;;;;;;;;;;5267896;28;20024;-69
2023/03/29 03:21:56;;;;;;;1.35;0.40;;;;;;;;;;5267368;28;20036;-69
2023/03/29 03:24:27;;;;;;;1.70;0.40;;;;;;;;;;5266917;28;20013;-68
2023/03/29 03:26:58;;;;;;;1.50;0.40;;;;;;;;;;5267408;28;20043;-69
2023/03/29 03:29:30;;;;;;;1.35;0.50;;;;;;;;;;5267577;28;20116;-69
2023/03/29 03:32:01;;;;;;;1.80;0.50;;;;;;;;;;5267216;28;20429;-69
2023/03/29 03:34:33;;;;;;;2.17;0.50;;;;;;;;;;5267597;28;20029;-69
2023/03/29 03:37:04;;;;;;;2.67;0.65;;;;;;;;;;5266904;28;20029;-69
2023/03/29 03:39:36;;;;;;;2.42;0.46;;;;;;;;;;5267514;28;20483;-69
2023/03/29 03:42:07;;;;;;;1.92;0.50;;;;;;;;;;5267622;28;20486;-69
2023/03/29 03:44:38;;;;;;;2.53;0.50;;;;;;;;;;5266708;28;20028;-69
2023/03/29 03:47:09;;;;;;;2.25;0.50;;;;;;;;;;5267915;28;20108;-69
2023/03/29 03:49:41;;;;;;;2.10;0.50;;;;;;;;;;5267088;28;20171;-69
2023/03/29 03:52:12;;;;;;;1.10;0.40;;;;;;;;;;5267008;28;20061;-69
2023/03/29 03:54:45;;;;;;;3.30;0.50;;;;;;;;;;5267458;28;20024;-69
2023/03/29 03:57:16;;;;;;;1.38;0.50;;;;;;;;;;5267972;28;20478;-69
2023/03/29 03:59:47;;;;;;;1.80;0.56;;;;;;;;;;5266482;28;20018;-69
2023/03/29 04:02:20;;;;;;;2.72;0.60;;;;;;;;;;5267702;28;20136;-69
2023/03/29 04:04:53;;;;;;;2.08;0.63;;;;;;;;;;5266666;28;20434;-69
2023/03/29 04:07:26;;;;;;;2.28;0.57;;;;;;;;;;5267717;28;20482;-69
2023/03/29 04:09:58;;;;;;;3.33;0.50;;;;;;;;;;5267169;28;20032;-69
2023/03/29 04:12:29;;;;;;;2.95;0.68;;;;;;;;;;5266462;28;20025;-70
2023/03/29 04:15:01;;;;;;;2.50;0.80;;;;;;;;;;5267211;28;20091;-69
2023/03/29 04:17:32;;;;;;;2.53;0.60;;;;;;;;;;5267334;28;20429;-69
2023/03/29 04:20:10;;;;;;;3.30;0.60;;;;;;;;;;5266343;28;20032;-69
2023/03/29 04:22:42;;;;;;;1.83;0.50;;;;;;;;;;5266885;28;20380;-70
2023/03/29 04:25:13;;;;;;;2.78;0.50;;;;;;;;;;5264944;28;20019;-69
2023/03/29 04:27:44;;;;;;;1.90;0.50;;;;;;;;;;5262783;28;20036;-69
2023/03/29 04:30:16;;;;;;;1.73;0.50;;;;;;;;;;5264204;28;20090;-69
2023/03/29 04:32:47;;;;;;;2.22;0.47;;;;;;;;;;5263542;28;20029;-70
2023/03/29 04:35:18;;;;;;;3.90;0.50;;;;;;;;;;5263308;28;20040;-69
2023/03/29 04:37:51;;;;;;;2.08;0.40;;;;;;;;;;5263434;28;20067;-69
2023/03/29 04:40:22;;;;;;;2.58;0.60;;;;;;;;;;5263089;28;20031;-69
2023/03/29 04:42:53;;;;;;;2.55;0.70;;;;;;;;;;5263336;28;20529;-69
2023/03/29 04:45:24;;;;;;;2.67;0.70;;;;;;;;;;5263819;28;20020;-68
2023/03/29 04:47:58;;;;;;;3.03;0.80;;;;;;;;;;5262682;28;20060;-69
2023/03/29 04:50:29;;;;;;;2.72;0.70;;;;;;;;;;5263721;28;20135;-69
2023/03/29 04:53:01;;;;;;;1.80;0.57;;;;;;;;;;5263196;28;20110;-69
2023/03/29 04:55:32;;;;;;;1.95;0.50;;;;;;;;;;5262570;28;20104;-69
2023/03/29 04:58:04;;;;;;;2.65;0.60;;;;;;;;;;5263190;28;20102;-69
2023/03/29 05:00:35;;;;;;;2.88;0.60;;;;;;;;;;5263539;28;20021;-70
2023/03/29 05:03:08;;;;;;;2.50;0.73;;;;;;;;;;5262358;28;20028;-69
2023/03/29 05:05:40;;;;;;;1.70;0.70;;;;;;;;;;5262918;28;20055;-70
2023/03/29 05:08:11;;;;;;;2.35;0.60;;;;;;;;;;5262301;28;20052;-69
2023/03/29 05:10:43;;;;;;;3.33;0.70;;;;;;;;;;5262713;28;20021;-69
2023/03/29 05:13:15;;;;;;;2.33;0.82;;;;;;;;;;5263025;28;20062;-71
2023/03/29 05:15:46;;;;;;;3.17;0.70;;;;;;;;;;5261868;28;20027;-69
2023/03/29 05:18:17;;;;;;;4.65;0.68;;;;;;;;;;5263278;28;20472;-69
2023/03/29 05:20:49;;;;;;;2.92;0.60;;;;;;;;;;5262333;28;20021;-69
2023/03/29 05:23:21;;;;;;;2.58;1.08;;;;;;;;;;5261734;28;20025;-69
2023/03/29 05:25:52;;;;;;;3.20;1.10;;;;;;;;;;5262251;28;20028;-70
2023/03/29 05:28:23;;;;;;;2.85;0.65;;;;;;;;;;5262343;28;20029;-69
2023/03/29 05:31:02;;;;;;;5.40;0.90;;;;;;;;;;5260894;28;20063;-70
2023/03/29 05:33:34;;;;;;;;;;;;;;;;;;5262582;28;20071;-69
2023/03/29 05:36:06;;;;;;;4.40;0.80;;;;;;;;;;5261852;28;19913;-69
2023/03/29 05:38:38;;;;;;;1.85;0.70;;;;;;;;;;5261197;28;20017;-69
2023/03/29 05:41:09;;;;;;;2.20;0.70;;;;;;;;;;5262822;28;20464;-69
2023/03/29 05:43:41;;;;;;;4.25;0.80;;;;;;;;;;5260945;28;20032;-69
2023/03/29 05:46:12;;;;;;;2.95;0.70;;;;;;;;;;5262352;28;20013;-70
2023/03/29 05:48:44;;;;;;;4.00;0.80;;;;;;;;;;5261835;28;20511;-70
2023/03/29 05:51:17;;;;;;;2.90;0.75;;;;;;;;;;5261213;28;20029;-70
2023/03/29 05:53:49;;;;;;;1.52;0.60;;;;;;;;;;5261814;28;20494;-70
2023/03/29 05:56:21;;;;;;;2.10;0.70;;;;;;;;;;5262249;28;20017;-69
2023/03/29 05:58:53;;;;;;;2.88;0.70;;;;;;;;;;5260812;28;20021;-69
2023/03/29 06:01:24;;;;;;;3.35;0.70;;;;;;;;;;5262634;28;20044;-69
2023/03/29 06:03:56;;;;;;;2.50;0.80;;;;;;;;;;5261840;28;20029;-70
2023/03/29 06:06:27;;;;;;;2.50;0.65;;;;;;;;;;5261198;28;20009;-70
2023/03/29 06:09:00;;;;;;;3.08;0.75;;;;;;;;;;5261505;28;20039;-70
2023/03/29 06:11:31;;;;;;;3.53;0.70;;;;;;;;;;5260992;28;20359;-70
2023/03/29 06:14:03;;;;;;;3.30;0.80;;;;;;;;;;5261850;28;20024;-70
2023/03/29 06:16:35;;;;;;;5.53;1.13;;;;;;;;;;5261859;28;20021;-70
2023/03/29 06:19:06;;;;;;;4.15;0.90;;;;;;;;;;5260827;28;20028;-70
2023/03/29 06:21:37;;;;;;;3.53;0.90;;;;;;;;;;5260910;28;20025;-69
2023/03/29 06:24:08;;;;;;;4.05;0.75;;;;;;;;;;5261808;28;20494;-69
2023/03/29 06:26:40;;;;;;;4.70;0.90;;;;;;;;;;5260530;28;20060;-69
2023/03/29 06:29:12;;;;;;;2.75;0.70;;;;;;;;;;5261659;28;20095;-69
2023/03/29 06:31:44;;;;;;;3.50;0.70;;;;;;;;;;5260969;28;20013;-69
2023/03/29 06:34:16;;;;;;;2.75;0.93;;;;;;;;;;5260830;28;20025;-70
2023/03/29 06:36:49;;;;;;;2.97;0.80;;;;;;;;;;5261270;28;20013;-70
2023/03/29 06:39:21;;;;;;;5.43;1.10;;;;;;;;;;5261480;28;20029;-69
2023/03/29 06:41:52;;;;;;;4.55;1.20;;;;;;;;;;5260200;28;20082;-70
2023/03/29 06:44:24;;;;;;;3.08;1.05;;;;;;;;;;5261296;28;20037;-70
2023/03/29 06:46:55;;;;;;;2.60;0.70;;;;;;;;;;5260142;28;20021;-69
2023/03/29 06:49:26;;;;;;;4.97;2.03;;;;;;;;;;5260585;28;20039;-69
2023/03/29 06:51:58;;;;;;;2.00;0.80;;;;;;;;;;5260617;28;20047;-69
2023/03/29 06:54:30;;;;;;;4.13;0.90;;;;;;;;;;5260453;28;20051;-70
2023/03/29 06:57:03;;;;;;;2.90;0.90;;;;;;;;;;5260876;28;20021;-69
2023/03/29 06:59:34;;;;;;;5.18;1.38;;;;;;;;;;5260795;28;20020;-69
2023/03/29 07:02:07;;;;;;;2.35;1.10;;;;;;;;;;5260108;28;20021;-69
2023/03/29 07:04:40;;;;;;;5.40;1.10;;;;;;;;;;5260688;28;20013;-71
2023/03/29 07:07:18;;;;;;;2.75;0.80;;;;;;;;;;5260668;28;20025;-70
2023/03/29 07:09:54;;;;;;;3.77;0.93;;;;;;;;;;5259850;28;20506;-70
2023/03/29 07:12:25;;;;;;;3.80;1.17;;;;;;;;;;5261133;28;20246;-71
2023/03/29 07:14:57;;;;;;;3.65;1.08;;;;;;;;;;5259822;28;20053;-71
2023/03/29 07:17:28;;;;;;;3.25;1.00;;;;;;;;;;5261220;28;20021;-70
2023/03/29 07:19:59;;;;;;;4.15;1.45;;;;;;;;;;5260348;28;20082;-70
2023/03/29 07:22:31;;;;;;;4.78;1.00;;;;;;;;;;5260266;28;20024;-70
2023/03/29 07:25:02;;;;;;;4.75;1.20;;;;;;;;;;5260661;28;20017;-70
2023/03/29 07:27:34;;;;;;;5.85;0.95;;;;;;;;;;5260815;28;20028;-70
2023/03/29 07:30:09;;;;;;;2.97;0.93;;;;;;;;;;5259592;28;20024;-70
2023/03/29 07:32:43;;;;;;;2.50;0.90;;;;;;;;;;5260489;28;20028;-71
2023/03/29 07:35:16;;;;;;;4.10;1.00;;;;;;;;;;5260655;28;20379;-71
2023/03/29 07:37:47;;;;;;;5.13;1.20;;;;;;;;;;5259312;28;20379;-71
2023/03/29 07:40:22;;;;;;;3.45;1.00;;;;;;;;;;5260538;28;20021;-70
2023/03/29 07:42:54;;;;;;;3.45;1.00;;;;;;;;;;5259396;28;20029;-70
2023/03/29 07:45:27;;;;;;;4.47;1.05;;;;;;;;;;5260664;28;20013;-70
2023/03/29 07:47:59;;;;;;;5.68;1.27;;;;;;;;;;5260122;28;20075;-69
2023/03/29 07:50:31;;;;;;;3.00;0.90;;;;;;;;;;5259977;28;20042;-70
2023/03/29 07:53:02;;;;;;;3.33;1.48;;;;;;;;;;5260049;28;20060;-70
2023/03/29 07:55:33;;;;;;;3.30;1.15;;;;;;;;;;5260597;28;20364;-70
2023/03/29 07:58:05;;;;;;;5.30;1.27;;;;;;;;;;5259620;28;20083;-70
2023/03/29 08:00:36;;;;;;;2.82;1.02;;;;;;;;;;5263133;28;20049;-68
2023/03/29 08:03:09;;;;;;;3.63;1.65;;;;;;;;;;5264049;28;20025;-71
2023/03/29 08:05:40;;;;;;;3.75;1.40;;;;;;;;;;5263085;28;20024;-70
2023/03/29 08:08:12;;;;;;;4.55;1.35;;;;;;;;;;5264378;28;20033;-69
2023/03/29 08:10:44;;;;;;;6.85;1.70;;;;;;;;;;5263601;28;20017;-69
2023/03/29 08:13:15;;;;;;;4.20;1.38;;;;;;;;;;5262285;28;20391;-69
2023/03/29 08:15:47;;;;;;;4.03;1.73;;;;;;;;;;5261589;28;20100;-70
2023/03/29 08:18:18;;;;;;;3.83;1.65;;;;;;;;;;5261595;28;20021;-69
2023/03/29 08:20:50;;;;;;;4.75;1.85;;;;;;;;;;5261852;28;20025;-70
2023/03/29 08:23:22;;;;;;;4.55;1.60;;;;;;;;;;5263002;28;20048;-69
2023/03/29 08:25:53;;;;;;;6.05;2.03;;;;;;;;;;5261459;28;20017;-70
2023/03/29 08:28:24;;;;;;;5.07;1.42;;;;;;;;;;5263335;28;20404;-70
2023/03/29 08:30:56;;;;;;;7.32;2.00;;;;;;;;;;5263685;28;20025;-70
2023/03/29 08:33:27;;;;;;;4.80;2.28;;;;;;;;;;5263241;28;20111;-70
2023/03/29 08:35:58;;;;;;;6.57;2.30;;;;;;;;;;5263363;28;20020;-70
2023/03/29 08:38:29;;;;;;;5.07;1.50;;;;;;;;;;5263623;28;20025;-71
2023/03/29 08:41:10;;;;;;;5.93;1.83;;;;;;;;;;5262526;28;20456;-70
2023/03/29 08:43:44;;;;;;;4.10;1.60;;;;;;;;;;5263383;28;20490;-70
2023/03/29 08:46:25;;;;;;;7.30;3.00;;;;;;;;;;5262981;28;20021;-72
2023/03/29 08:49:00;;;;;;;7.32;2.40;;;;;;;;;;5262927;28;20028;-70
2023/03/29 08:51:35;;;;;;;7.38;1.83;;;;;;;;;;5263168;28;20033;-70
2023/03/29 08:54:11;;;;;;;5.28;2.38;;;;;;;;;;5262680;28;20345;-70
2023/03/29 08:56:44;;;;;;;3.97;1.73;;;;;;;;;;5262765;28;20013;-69
2023/03/29 08:59:34;;;;;;;8.23;2.17;;;;;;;;;;5261311;28;20522;-69
2023/03/29 09:02:11;;;;;;;5.07;2.45;;;;;;;;;;5262314;28;20040;-70
2023/03/29 09:04:42;;;;;;;8.15;2.17;;;;;;;;;;5262887;28;20104;-69
2023/03/29 09:07:13;;;;;;;6.15;2.10;;;;;;;;;;5263152;28;20105;-69
2023/03/29 09:09:45;;;;;;;4.78;1.90;;;;;;;;;;5262041;28;20048;-69
2023/03/29 09:12:16;;;;;;;5.30;2.00;;;;;;;;;;5261807;28;20124;-69
2023/03/29 09:14:51;;;;;;;5.60;2.20;;;;;;;;;;5261714;28;20029;-69
2023/03/29 09:17:25;;;;;;;6.72;1.95;;;;;;;;;;5263361;28;20490;-69
2023/03/29 09:20:15;;;;;;;4.95;1.88;;;;;;;;;;5262309;28;20037;-70
2023/03/29 09:22:46;;;;;;;3.88;1.65;;;;;;;;;;5261404;28;20104;-70
2023/03/29 09:25:22;;;;;;;7.78;2.40;;;;;;;;;;5262876;28;20101;-69
2023/03/29 09:28:04;;;;;;;6.97;2.45;;;;;;;;;;5260997;28;20029;-69
2023/03/29 09:30:48;;;;;;;7.80;2.10;;;;;;;;;;5261863;28;20044;-69
2023/03/29 09:33:22;;;;;;;5.00;1.98;;;;;;;;;;5262571;28;20032;-69
2023/03/29 09:35:54;;;;;;;6.38;2.60;;;;;;;;;;5261658;28;20375;-69
2023/03/29 09:38:27;;;;;;;5.93;1.98;;;;;;;;;;5262716;28;20096;-69
2023/03/29 09:41:20;;;;;;;3.75;1.77;;;;;;;;;;5262183;28;20479;-69
2023/03/29 09:43:51;;;;;;;6.38;2.70;;;;;;;;;;5261226;28;20102;-69
2023/03/29 09:46:27;;;;;;;5.20;2.33;;;;;;;;;;5262380;28;20020;-69
2023/03/29 09:48:59;;;;;;;6.65;2.30;;;;;;;;;;5261751;28;20029;-69
2023/03/29 09:51:31;;;;;;;7.38;3.15;;;;;;;;;;5261139;28;20044;-70
2023/03/29 09:54:02;;;;;;;4.43;2.35;;;;;;;;;;5262192;28;20074;-69
2023/03/29 09:56:33;;;;;;;7.30;2.55;;;;;;;;;;5261545;28;20025;-70
2023/03/29 09:59:06;;;;;;;4.80;2.35;;;;;;;;;;5262541;28;20036;-69
2023/03/29 10:01:40;;;;;;;7.93;2.70;;;;;;;;;;5282022;28;20455;-70
2023/03/29 10:04:11;;;;;;;7.38;2.90;;;;;;;;;;5281848;28;20456;-69
2023/03/29 10:06:48;;;;;;;5.07;2.60;;;;;;;;;;5282126;28;20022;-69
2023/03/29 10:09:20;;;;;;;7.70;2.58;;;;;;;;;;5282777;28;20031;-69
2023/03/29 10:11:54;;;;;;;7.75;2.58;;;;;;;;;;5280973;28;20017;-69
2023/03/29 10:14:35;;;;;;;5.90;2.47;;;;;;;;;;5282316;28;20028;-70
2023/03/29 10:17:14;;;;;;;5.28;2.20;;;;;;;;;;5282048;28;20462;-69
2023/03/29 10:19:49;;;;;;;4.03;2.50;;;;;;;;;;5281149;28;20016;-69
2023/03/29 10:22:21;;;;;;;5.65;1.95;;;;;;;;;;5281677;28;20085;-68
2023/03/29 10:24:54;;;;;;;3.63;1.77;;;;;;;;;;5280927;28;20020;-69
2023/03/29 10:27:29;;;;;;;5.00;2.58;;;;;;;;;;5281981;28;20051;-70
2023/03/29 10:30:07;;;;;;;4.97;2.08;;;;;;;;;;5281054;28;20051;-69
2023/03/29 10:32:39;;;;;;;4.90;2.13;;;;;;;;;;5280501;28;20385;-69
2023/03/29 10:35:13;;;;;;;6.63;2.10;;;;;;;;;;5280567;28;20103;-69
2023/03/29 10:37:48;;;;;;;4.88;1.67;;;;;;;;;;5280004;28;20040;-69
2023/03/29 10:40:24;;;;;;;5.90;2.25;;;;;;;;;;5277832;28;20024;-69
2023/03/29 10:43:00;;;;;;;5.10;1.60;;;;;;;;;;5280183;28;20031;-68
2023/03/29 10:45:33;;;;;;;6.03;1.70;;;;;;;;;;5281420;28;20058;-68
2023/03/29 10:48:08;;;;;;;5.13;1.95;;;;;;;;;;5280394;28;20082;-69
2023/03/29 10:50:40;;;;;;;3.97;1.85;;;;;;;;;;5280673;28;20044;-68
2023/03/29 10:53:14;;;;;;;5.03;2.10;;;;;;;;;;5280050;28;20092;-69
2023/03/29 10:55:48;;;;;;;3.72;1.73;;;;;;;;;;5281630;28;20019;-69
2023/03/29 10:58:37;;;;;;;4.45;2.30;;;;;;;;;;5281987;28;20497;-70
2023/03/29 11:01:11;;;;;;;5.75;1.80;;;;;;;;;;5281428;28;20057;-68
2023/03/29 11:04:00;;;;;;;4.55;1.95;;;;;;;;;;5281810;28;20016;-69
2023/03/29 11:06:31;;;;;;;2.42;1.35;;;;;;;;;;5281850;28;20028;-69
2023/03/29 11:09:26;;;;;;;3.63;1.92;;;;;;;;;;5280735;28;20033;-68
2023/03/29 11:12:02;;;;;;;3.08;1.42;;;;;;;;;;5278309;28;20032;-68
2023/03/29 11:14:34;;;;;;;5.00;1.52;;;;;;;;;;5281015;28;20024;-68
2023/03/29 11:17:24;;;;;;;3.42;1.60;;;;;;;;;;5281574;28;20062;-69
2023/03/29 11:20:16;;;;;;;4.40;1.80;;;;;;;;;;5281471;28;20031;-68
2023/03/29 11:23:08;;;;;;;4.13;1.80;;;;;;;;;;5280549;28;20055;-69
2023/03/29 11:25:54;;;;;;;4.30;1.45;;;;;;;;;;5281081;28;20122;-70
2023/03/29 11:28:27;;;;;;;5.70;2.10;;;;;;;;;;5280932;28;20032;-70
2023/03/29 11:31:03;;;;;;;5.35;1.98;;;;;;;;;;5281202;28;20390;-68
2023/03/29 11:33:52;;;;;;;4.15;1.40;;;;;;;;;;5281485;28;20023;-69
2023/03/29 11:36:30;;;;;;;3.00;1.40;;;;;;;;;;5285028;28;20367;-69
2023/03/29 11:39:04;;;;;;;3.80;1.52;;;;;;;;;;5285375;28;20016;-69
2023/03/29 11:41:38;;;;;;;4.68;2.08;;;;;;;;;;5285062;28;20013;-68
2023/03/29 11:44:13;;;;;;;3.25;1.48;;;;;;;;;;5284994;28;20024;-68
2023/03/29 11:46:47;;;;;;;4.63;1.80;;;;;;;;;;5284933;28;20375;-69
2023/03/29 11:49:22;;;;;;;4.30;1.65;;;;;;;;;;5284859;28;20037;-70
2023/03/29 11:52:05;;;;;;;3.95;1.45;;;;;;;;;;5284639;28;20402;-70
2023/03/29 11:54:46;;;;;;;5.75;1.77;;;;;;;;;;5285154;28;20498;-69
2023/03/29 11:57:32;;;;;;;3.53;1.48;;;;;;;;;;5284630;28;20047;-70
2023/03/29 12:00:05;;;;;;;4.25;2.22;;;;;;;;;;5284837;28;20047;-70
2023/03/29 12:02:40;;;;;;;4.88;2.00;;;;;;;;;;5285076;28;20012;-70
2023/03/29 12:05:11;;;;;;;3.55;1.60;;;;;;;;;;5284531;28;20055;-69
2023/03/29 12:07:46;;;;;;;3.35;1.50;;;;;;;;;;5284581;28;20087;-70
2023/03/29 12:10:22;;;;;;;6.22;1.52;;;;;;;;;;5284622;28;20772;-70
2023/03/29 12:12:58;;;;;;;3.95;1.67;;;;;;;;;;5284250;28;20418;-69
2023/03/29 12:15:32;;;;;;;5.63;1.65;;;;;;;;;;5284741;28;20078;-69
2023/03/29 12:18:07;;;;;;;4.95;1.67;;;;;;;;;;5284206;28;20016;-70
2023/03/29 12:20:39;;;;;;;3.17;1.38;;;;;;;;;;5284579;28;20032;-71
2023/03/29 12:23:13;;;;;;;3.83;1.45;;;;;;;;;;5285214;28;20024;-71
2023/03/29 12:25:52;;;;;;;2.47;1.40;;;;;;;;;;5283578;28;20079;-71
2023/03/29 12:28:31;;;;;;;4.57;1.80;;;;;;;;;;5284979;28;20035;-69
2023/03/29 12:31:05;;;;;;;3.28;1.30;;;;;;;;;;5283348;28;20024;-70
2023/03/29 12:33:47;;;;;;;4.03;1.63;;;;;;;;;;5281756;28;20104;-70
2023/03/29 12:36:37;;;;;;;4.32;1.73;;;;;;;;;;5282709;28;20024;-71
2023/03/29 12:39:15;;;;;;;4.03;1.13;;;;;;;;;;5282106;28;20027;-70
2023/03/29 12:41:52;;;;;;;4.20;1.30;;;;;;;;;;5282494;28;20024;-70
2023/03/29 12:44:23;;;;;;;3.20;0.88;;;;;;;;;;5282836;28;20096;-70
2023/03/29 12:46:57;;;;;;;3.35;1.10;;;;;;;;;;5281627;28;20124;-70
2023/03/29 12:49:30;;;;;;;2.92;1.20;;;;;;;;;;5284796;28;20115;-70
2023/03/29 12:52:06;;;;;;;5.25;0.98;;;;;;;;;;5284121;28;20119;-70
2023/03/29 12:54:37;;;;;;;3.03;0.80;;;;;;;;;;5283296;28;20085;-70
2023/03/29 12:57:26;;;;;;;3.03;0.80;;;;;;;;;;5284269;28;20013;-69
2023/03/29 13:00:07;;;;;;;2.65;0.68;;;;;;;;;;5283206;28;20263;-70
2023/03/29 13:02:38;;;;;;;2.38;0.80;;;;;;;;;;5283943;28;20477;-69
2023/03/29 13:05:30;;;;;;;1.85;0.80;;;;;;;;;;5284287;28;20017;-70
2023/03/29 13:08:24;;;;;;;3.10;1.02;;;;;;;;;;5283203;28;20037;-69
2023/03/29 13:10:55;;;;;;;1.85;0.98;;;;;;;;;;5280508;28;20032;-70
2023/03/29 13:13:36;;;;;;;2.42;0.70;;;;;;;;;;5283889;28;20090;-70
2023/03/29 13:16:09;;;;;;;2.33;0.93;;;;;;;;;;5283818;28;20031;-70
2023/03/29 13:18:40;;;;;;;2.22;0.90;;;;;;;;;;5283471;28;20021;-70
2023/03/29 13:21:16;;;;;;;3.03;0.95;;;;;;;;;;5283222;28;20498;-69
2023/03/29 13:23:52;;;;;;;3.00;0.80;;;;;;;;;;5283423;28;20206;-70
2023/03/29 13:26:49;;;;;;;2.28;0.80;;;;;;;;;;5283505;28;20113;-69
2023/03/29 13:29:38;;;;;;;2.42;1.00;;;;;;;;;;5283233;28;20032;-70
2023/03/29 13:32:18;;;;;;;1.83;0.60;;;;;;;;;;5283712;28;20085;-70
2023/03/29 13:35:09;;;;;;;3.60;0.70;;;;;;;;;;5282104;28;20433;-70
2023/03/29 13:37:43;;;;;;;2.33;0.70;;;;;;;;;;5283201;28;20043;-70
2023/03/29 13:40:30;;;;;;;3.47;1.00;;;;;;;;;;5283625;28;20039;-72
2023/03/29 13:43:09;;;;;;;2.75;0.60;;;;;;;;;;5282261;28;20023;-71
2023/03/29 13:45:40;;;;;;;2.95;0.80;;;;;;;;;;5282738;28;20059;-72
2023/03/29 13:48:26;;;;;;;3.00;0.82;;;;;;;;;;5283067;28;20110;-69
2023/03/29 13:51:03;;;;;;;2.17;0.70;;;;;;;;;;5282038;28;20066;-70
2023/03/29 13:53:35;;;;;;;1.90;0.60;;;;;;;;;;5282824;28;20113;-72
2023/03/29 13:56:09;;;;;;;3.23;0.70;;;;;;;;;;5282067;28;20052;-71
2023/03/29 13:58:46;;;;;;;2.35;0.80;;;;;;;;;;5282515;28;20263;-70
2023/03/29 14:01:27;;;;;;;1.67;0.60;;;;;;;;;;5283030;28;20016;-70
2023/03/29 14:03:58;;;;;;;2.38;0.70;;;;;;;;;;5281694;28;20036;-70
2023/03/29 14:06:35;;;;;;;2.45;0.85;;;;;;;;;;5283014;28;20021;-70
2023/03/29 14:09:07;;;;;;;2.90;0.70;;;;;;;;;;5282762;28;20490;-72
2023/03/29 14:11:42;;;;;;;3.80;1.00;;;;;;;;;;5281634;28;20027;-71
2023/03/29 14:14:15;;;;;;;1.73;0.80;;;;;;;;;;5282474;28;20027;-72
2023/03/29 14:16:46;;;;;;;1.92;0.70;;;;;;;;;;5281470;28;20017;-69
2023/03/29 14:19:20;;;;;;;3.35;0.90;;;;;;;;;;5282838;28;20024;-72
2023/03/29 14:21:52;;;;;;;6.25;0.80;;;;;;;;;;5282195;28;20118;-69
2023/03/29 14:24:39;;;;;;;4.25;0.88;;;;;;;;;;5281915;28;20013;-71
2023/03/29 14:27:11;;;;;;;2.72;0.75;;;;;;;;;;5282283;28;20406;-70
2023/03/29 14:29:46;;;;;;;1.48;0.63;;;;;;;;;;5282140;28;20062;-72
2023/03/29 14:32:19;;;;;;;2.83;0.90;;;;;;;;;;5281745;28;20019;-71
2023/03/29 14:34:50;;;;;;;4.40;0.88;;;;;;;;;;5281650;28;20374;-71
2023/03/29 14:37:24;;;;;;;2.97;0.95;;;;;;;;;;5282237;28;20107;-70
2023/03/29 14:39:57;;;;;;;3.17;0.93;;;;;;;;;;5281017;28;20027;-70
2023/03/29 14:42:28;;;;;;;2.97;0.70;;;;;;;;;;5282417;28;20040;-71
2023/03/29 14:45:04;;;;;;;1.90;0.60;;;;;;;;;;5280895;28;20074;-71
2023/03/29 14:47:37;;;;;;;3.17;0.73;;;;;;;;;;5281686;28;20036;-71
2023/03/29 14:50:16;;;;;;;3.03;0.80;;;;;;;;;;5281976;28;20020;-71
2023/03/29 14:52:49;;;;;;;4.10;0.82;;;;;;;;;;5280335;28;20408;-70
2023/03/29 14:55:22;;;;;;;4.75;0.90;;;;;;;;;;5281819;28;20116;-70
2023/03/29 14:57:54;;;;;;;5.25;1.08;;;;;;;;;;5279416;28;20020;-70
2023/03/29 15:00:38;;;;;;;3.47;0.70;;;;;;;;;;5278958;28;20027;-70
2023/03/29 15:03:13;;;;;;;1.80;0.50;;;;;;;;;;5280098;28;20025;-71
2023/03/29 15:05:50;;;;;;;1.08;0.50;;;;;;;;;;5279470;28;20122;-70
2023/03/29 15:08:36;;;;;;;1.27;0.40;;;;;;;;;;5278970;28;20017;-71
2023/03/29 15:11:26;;;;;;;1.45;0.40;;;;;;;;;;5279553;28;20016;-69
2023/03/29 15:14:12;;;;;;;3.75;0.50;;;;;;;;;;5278805;28;20104;-71
2023/03/29 15:16:44;;;;;;;2.05;0.40;;;;;;;;;;5279776;28;20024;-70
2023/03/29 15:19:17;;;;;;;1.20;0.30;;;;;;;;;;5279846;28;20024;-70
2023/03/29 15:21:48;;;;;;;2.22;0.40;;;;;;;;;;5279819;28;20020;-70
2023/03/29 15:24:22;;;;;;;1.08;0.30;;;;;;;;;;5281840;28;20020;-70
2023/03/29 15:26:57;;;;;;;1.48;0.50;;;;;;;;;;5281409;28;20013;-71